Portada
METAR-TAF:

METAR-TAF

Aeropuertos :

Almería, España

Aeropuerto de Almería

latitud: 36-51N, longitud: 002-23W, altitud: 15 m

Observación

El informe se hizo hace 19 minutos, a las 21:30 UTC
Viento 4 kt del norte-noroeste
Temperatura 11°C
Humedad 82%
Presión 1016 hPa
Visibilidad 10 km o más
sin nubes por debajo de 1500 m y sin presencia de cumulonimbus.

METAR: LEAM 222130Z 33004KT CAVOK 11/08 Q1016

Hora: 22:49 (21:49 UTC)

Pronóstico

El informe se hizo hace 1 hora y 49 minutos, a las 20:00 UTC
Pronóstico válido del 22 a las 21 UTC al 23 a las 21 UTC
Viento 6 kt del suroeste
Visibilidad 10 km o más
sin nubes por debajo de 1500 m y sin presencia de cumulonimbus.
Probabilidad 40% :
Temporalmente
del 23 a las 02 UTC al 23 a las 08 UTC
Viento 10 kt del norte-noroeste

TAF: LEAM 222000Z 2221/2321 23006KT CAVOK TX20/2312Z TN09/2306Z PROB40 TEMPO 2302/2308 34010KT

Observaciones y pronósticos meteorológicos de más de 4000 aeropuertos (mensajes METAR y TAF).

Los puntos amarillos y rojos representan las estaciones disponibles.

Ponga el ratón en el punto deseado para ver el nombre de la estación.

Haga clic para ver las observaciones y los pronósticos meteorológicos.

Para cambiar el mapa : haga clic en los botones verdes con una cruz de color negro para hacer un zoom, en el botón verde con un guión para alejar o en las flechas verdes para mapas adyacentes.


METAR-TAF: